Time,TemperatureF,DewpointF,PressureIn,WindDirection,WindDirectionDegrees,WindSpeedMPH,WindSpeedGustMPH,Humidity,HourlyPrecipIn,Conditions,Clouds,dailyrainin,SoftwareType,DateUTC
2013-02-20 00:00:00,36.0,33.1,30.17,ESE,122,1.0,2.0,89,0.00,,,0.12,Wunderground v.1.15,2013-02-20 08:00:00,
2013-02-20 00:10:00,36.4,33.5,30.17,WNW,294,1.0,3.0,89,0.00,,,0.00,Wunderground v.1.15,2013-02-20 08:10:00,
2013-02-20 00:20:00,37.3,33.5,30.17,WSW,243,3.0,3.0,86,0.00,,,0.00,Wunderground v.1.15,2013-02-20 08:20:00,
2013-02-20 00:25:00,37.6,33.5,30.17,SW,219,3.0,6.0,85,0.00,,,0.00,Wunderground v.1.15,2013-02-20 08:25:00,
2013-02-20 00:35:00,37.6,33.8,30.18,NW,309,2.0,3.0,86,0.00,,,0.00,Wunderground v.1.15,2013-02-20 08:35:00,
2013-02-20 00:40:00,37.5,34.0,30.18,NNE,18,1.0,3.0,87,0.00,,,0.00,Wunderground v.1.15,2013-02-20 08:40:00,
2013-02-20 00:50:00,37.3,33.8,30.18,NNW,328,2.0,2.0,87,0.00,,,0.00,Wunderground v.1.15,2013-02-20 08:50:00,
2013-02-20 01:00:00,36.9,33.7,30.18,ENE,68,1.0,1.0,88,0.00,,,0.00,Wunderground v.1.15,2013-02-20 09:00:00,
2013-02-20 01:05:00,36.8,33.6,30.18,NNE,12,1.0,1.0,88,0.00,,,0.00,Wunderground v.1.15,2013-02-20 09:05:00,
2013-02-20 01:15:00,36.1,33.2,30.18,SSW,207,1.0,1.0,89,0.00,,,0.00,Wunderground v.1.15,2013-02-20 09:15:00,
2013-02-20 01:20:00,35.7,33.1,30.18,SSE,150,1.0,1.0,90,0.00,,,0.00,Wunderground v.1.15,2013-02-20 09:20:00,
2013-02-20 01:25:00,35.6,33.0,30.18,WSW,242,1.0,1.0,90,0.00,,,0.00,Wunderground v.1.15,2013-02-20 09:25:00,
2013-02-20 01:30:00,35.4,32.8,30.18,WSW,238,0.0,1.0,90,0.00,,,0.00,Wunderground v.1.15,2013-02-20 09:30:00,
2013-02-20 01:40:00,35.4,33.0,30.18,West,276,1.0,1.0,91,0.00,,,0.00,Wunderground v.1.15,2013-02-20 09:40:00,
2013-02-20 01:50:00,36.2,33.0,30.18,NE,37,1.0,2.0,88,0.00,,,0.00,Wunderground v.1.15,2013-02-20 09:50:00,
2013-02-20 01:55:00,36.1,32.9,30.18,SW,228,2.0,2.0,88,0.00,,,0.00,Wunderground v.1.15,2013-02-20 09:55:00,
2013-02-20 02:00:00,35.6,32.4,30.19,West,266,1.0,1.0,88,0.00,,,0.00,Wunderground v.1.15,2013-02-20 10:00:00,
2013-02-20 02:10:00,35.8,32.6,30.19,West,262,1.0,1.0,88,0.00,,,0.00,Wunderground v.1.15,2013-02-20 10:10:00,
2013-02-20 02:20:00,35.2,32.0,30.19,East,82,0.0,1.0,88,0.00,,,0.00,Wunderground v.1.15,2013-02-20 10:20:00,
2013-02-20 02:30:00,35.1,32.5,30.20,NNW,332,1.0,1.0,90,0.00,,,0.00,Wunderground v.1.15,2013-02-20 10:30:00,
2013-02-20 02:35:00,34.9,32.0,30.20,NNW,332,0.0,1.0,89,0.00,,,0.00,Wunderground v.1.15,2013-02-20 10:35:00,
2013-02-20 02:40:00,34.9,32.3,30.20,NNW,331,0.0,0.0,90,0.00,,,0.00,Wunderground v.1.15,2013-02-20 10:40:00,
2013-02-20 02:50:00,34.8,32.2,30.20,SE,126,0.0,0.0,90,0.00,,,0.00,Wunderground v.1.15,2013-02-20 10:50:00,
2013-02-20 03:00:00,34.7,32.3,30.20,WSW,252,0.0,0.0,91,0.00,,,0.00,Wunderground v.1.15,2013-02-20 11:00:00,
2013-02-20 03:10:00,34.7,32.3,30.21,West,277,0.0,0.0,91,0.00,,,0.00,Wunderground v.1.15,2013-02-20 11:10:00,
2013-02-20 03:15:00,34.7,32.3,30.21,West,276,0.0,0.0,91,0.00,,,0.00,Wunderground v.1.15,2013-02-20 11:15:00,
2013-02-20 03:20:00,34.5,32.1,30.21,ESE,122,0.0,0.0,91,0.00,,,0.00,Wunderground v.1.15,2013-02-20 11:20:00,
2013-02-20 03:30:00,34.3,31.9,30.21,ESE,120,0.0,0.0,91,0.00,,,0.00,Wunderground v.1.15,2013-02-20 11:30:00,
2013-02-20 03:40:00,34.3,31.9,30.21,ESE,122,0.0,0.0,91,0.00,,,0.00,Wunderground v.1.15,2013-02-20 11:40:00,
2013-02-20 03:45:00,34.1,31.7,30.21,East,93,0.0,2.0,91,0.00,,,0.00,Wunderground v.1.15,2013-02-20 11:45:00,
2013-02-20 03:50:00,34.0,31.6,30.21,SSE,159,1.0,1.0,91,0.00,,,0.00,Wunderground v.1.15,2013-02-20 11:50:00,
2013-02-20 03:55:00,33.9,31.6,30.22,SE,131,1.0,1.0,91,0.00,,,0.00,Wunderground v.1.15,2013-02-20 11:55:00,
2013-02-20 04:05:00,33.7,31.6,30.22,ENE,74,0.0,0.0,92,0.00,,,0.00,Wunderground v.1.15,2013-02-20 12:05:00,
2013-02-20 04:15:00,33.8,31.7,30.22,ENE,70,1.0,2.0,92,0.00,,,0.00,Wunderground v.1.15,2013-02-20 12:15:00,
2013-02-20 04:20:00,33.9,31.8,30.22,ENE,63,1.0,1.0,92,0.00,,,0.00,Wunderground v.1.15,2013-02-20 12:20:00,
2013-02-20 04:30:00,34.4,32.0,30.22,East,85,0.0,0.0,91,0.00,,,0.00,Wunderground v.1.15,2013-02-20 12:30:00,
2013-02-20 04:35:00,34.0,31.6,30.23,SE,134,0.0,2.0,91,0.00,,,0.00,Wunderground v.1.15,2013-02-20 12:35:00,
2013-02-20 04:45:00,33.8,31.7,30.23,ESE,114,1.0,1.0,92,0.00,,,0.00,Wunderground v.1.15,2013-02-20 12:45:00,
2013-02-20 04:55:00,34.0,31.9,30.24,ESE,114,0.0,1.0,92,0.00,,,0.00,Wunderground v.1.15,2013-02-20 12:55:00,
2013-02-20 05:00:00,33.9,31.8,30.24,ESE,114,0.0,0.0,92,0.00,,,0.00,Wunderground v.1.15,2013-02-20 13:00:00,
2013-02-20 05:10:00,33.9,31.6,30.24,SE,126,0.0,0.0,91,0.00,,,0.00,Wunderground v.1.15,2013-02-20 13:10:00,
2013-02-20 05:20:00,33.8,31.5,30.24,SE,134,1.0,1.0,91,0.00,,,0.00,Wunderground v.1.15,2013-02-20 13:20:00,
2013-02-20 05:25:00,33.6,31.3,30.24,ESE,120,0.0,1.0,91,0.00,,,0.00,Wunderground v.1.15,2013-02-20 13:25:00,
2013-02-20 05:35:00,33.5,31.4,30.24,ESE,120,0.0,0.0,92,0.00,,,0.00,Wunderground v.1.15,2013-02-20 13:35:00,
2013-02-20 05:45:00,33.7,31.6,30.25,SE,132,0.0,1.0,92,0.00,,,0.00,Wunderground v.1.15,2013-02-20 13:45:00,
2013-02-20 05:50:00,34.0,31.9,30.25,SSE,160,0.0,1.0,92,0.00,,,0.00,Wunderground v.1.15,2013-02-20 13:50:00,
2013-02-20 06:00:00,33.9,31.8,30.25,SSE,159,0.0,0.0,92,0.00,,,0.00,Wunderground v.1.15,2013-02-20 14:00:00,
2013-02-20 06:10:00,33.9,31.6,30.25,SSE,158,0.0,1.0,91,0.00,,,0.00,Wunderground v.1.15,2013-02-20 14:10:00,
2013-02-20 06:20:00,33.7,31.4,30.25,SE,131,0.0,1.0,91,0.00,,,0.00,Wunderground v.1.15,2013-02-20 14:20:00,
2013-02-20 06:30:00,33.8,31.5,30.26,SE,128,0.0,0.0,91,0.00,,,0.00,Wunderground v.1.15,2013-02-20 14:30:00,
2013-02-20 06:35:00,33.5,31.2,30.26,SE,128,0.0,0.0,91,0.00,,,0.00,Wunderground v.1.15,2013-02-20 14:35:00,
2013-02-20 06:45:00,33.6,31.3,30.26,ESE,117,0.0,1.0,91,0.00,,,0.00,Wunderground v.1.15,2013-02-20 14:45:00,
2013-02-20 06:50:00,33.5,31.4,30.27,ESE,117,0.0,0.0,92,0.00,,,0.00,Wunderground v.1.15,2013-02-20 14:50:00,
2013-02-20 07:00:00,34.0,31.9,30.27,SE,128,0.0,0.0,92,0.00,,,0.00,Wunderground v.1.15,2013-02-20 15:00:00,
2013-02-20 07:10:00,34.2,31.8,30.27,ESE,118,0.0,0.0,91,0.00,,,0.00,Wunderground v.1.15,2013-02-20 15:10:00,
2013-02-20 07:15:00,34.4,32.0,30.27,ESE,117,0.0,0.0,91,0.00,,,0.00,Wunderground v.1.15,2013-02-20 15:15:00,
2013-02-20 07:25:00,36.0,33.4,30.28,NW,319,0.0,1.0,90,0.00,,,0.00,Wunderground v.1.15,2013-02-20 15:25:00,
2013-02-20 07:30:00,37.1,33.9,30.28,SW,236,0.0,1.0,88,0.00,,,0.00,Wunderground v.1.15,2013-02-20 15:30:00,
2013-02-20 07:40:00,38.1,34.3,30.29,WSW,237,0.0,0.0,86,0.00,,,0.00,Wunderground v.1.15,2013-02-20 15:40:00,
2013-02-20 07:45:00,38.5,34.4,30.29,SW,236,0.0,0.0,85,0.00,,,0.00,Wunderground v.1.15,2013-02-20 15:45:00,
2013-02-20 07:55:00,39.8,34.8,30.30,SW,229,0.0,1.0,82,0.00,,,0.00,Wunderground v.1.15,2013-02-20 15:55:00,
2013-02-20 08:00:00,39.9,34.5,30.30,SSW,194,0.0,0.0,81,0.00,,,0.00,Wunderground v.1.15,2013-02-20 16:00:00,
2013-02-20 08:10:00,40.6,35.2,30.30,SSE,153,0.0,0.0,81,0.00,,,0.00,Wunderground v.1.15,2013-02-20 16:10:00,
2013-02-20 08:20:00,41.8,35.4,30.31,SSE,162,0.0,1.0,78,0.00,,,0.00,Wunderground v.1.15,2013-02-20 16:20:00,
2013-02-20 08:25:00,42.1,35.4,30.31,SE,128,0.0,1.0,77,0.00,,,0.00,Wunderground v.1.15,2013-02-20 16:25:00,
2013-02-20 08:35:00,41.2,34.5,30.31,East,84,1.0,3.0,77,0.00,,,0.00,Wunderground v.1.15,2013-02-20 16:35:00,
2013-02-20 08:45:00,41.8,35.1,30.31,North,6,1.0,4.0,77,0.00,,,0.00,Wunderground v.1.15,2013-02-20 16:45:00,
2013-02-20 08:50:00,42.1,35.4,30.30,SW,229,1.0,1.0,77,0.00,,,0.00,Wunderground v.1.15,2013-02-20 16:50:00,
2013-02-20 09:00:00,43.2,36.1,30.31,NE,52,3.0,3.0,76,0.00,,,0.00,Wunderground v.1.15,2013-02-20 17:00:00,
2013-02-20 09:10:00,43.8,35.4,30.30,ENE,71,3.0,3.0,72,0.00,,,0.00,Wunderground v.1.15,2013-02-20 17:10:00,
2013-02-20 09:15:00,44.1,34.6,30.30,NNW,347,3.0,3.0,69,0.00,,,0.00,Wunderground v.1.15,2013-02-20 17:15:00,
2013-02-20 09:25:00,45.2,35.3,30.31,NW,318,1.0,2.0,68,0.00,,,0.00,Wunderground v.1.15,2013-02-20 17:25:00,
2013-02-20 09:35:00,46.8,37.5,30.31,SE,135,1.0,1.0,70,0.00,,,0.00,Wunderground v.1.15,2013-02-20 17:35:00,
2013-02-20 09:40:00,47.0,35.8,30.31,NE,38,2.0,3.0,65,0.00,,,0.00,Wunderground v.1.15,2013-02-20 17:40:00,
2013-02-20 09:45:00,47.5,36.3,30.31,NNW,345,2.0,3.0,65,0.00,,,0.00,Wunderground v.1.15,2013-02-20 17:45:00,
2013-02-20 09:55:00,48.3,36.3,30.31,WSW,255,2.0,2.0,63,0.00,,,0.00,Wunderground v.1.15,2013-02-20 17:55:00,
2013-02-20 10:00:00,48.4,34.3,30.31,WSW,253,2.0,3.0,58,0.00,,,0.00,Wunderground v.1.15,2013-02-20 18:00:00,
2013-02-20 10:10:00,49.5,32.6,30.31,NW,322,2.0,3.0,52,0.00,,,0.00,Wunderground v.1.15,2013-02-20 18:10:00,
2013-02-20 10:20:00,50.4,33.9,30.31,WNW,302,3.0,3.0,53,0.00,,,0.00,Wunderground v.1.15,2013-02-20 18:20:00,
2013-02-20 10:30:00,51.2,33.2,30.31,West,278,4.0,4.0,50,0.00,,,0.00,Wunderground v.1.15,2013-02-20 18:30:00,
2013-02-20 10:35:00,51.7,34.1,30.31,North,354,4.0,7.0,51,0.00,,,0.00,Wunderground v.1.15,2013-02-20 18:35:00,
2013-02-20 10:45:00,52.3,35.7,30.32,North,5,4.0,4.0,53,0.00,,,0.00,Wunderground v.1.15,2013-02-20 18:45:00,
2013-02-20 10:50:00,52.6,35.9,30.32,WNW,300,3.0,6.0,53,0.00,,,0.00,Wunderground v.1.15,2013-02-20 18:50:00,
2013-02-20 11:00:00,52.8,33.6,30.32,West,264,4.0,4.0,48,0.00,,,0.00,Wunderground v.1.15,2013-02-20 19:00:00,
2013-02-20 11:10:00,53.1,32.3,30.31,WNW,291,5.0,7.0,45,0.00,,,0.00,Wunderground v.1.15,2013-02-20 19:10:00,
2013-02-20 11:20:00,53.6,36.9,30.31,WNW,290,4.0,5.0,53,0.00,,,0.00,Wunderground v.1.15,2013-02-20 19:20:00,
2013-02-20 11:25:00,53.9,35.2,30.31,WNW,302,4.0,6.0,49,0.00,,,0.00,Wunderground v.1.15,2013-02-20 19:25:00,
2013-02-20 11:35:00,54.3,33.4,30.31,WNW,293,4.0,4.0,45,0.00,,,0.00,Wunderground v.1.15,2013-02-20 19:35:00,
2013-02-20 11:40:00,54.4,33.5,30.31,North,4,5.0,5.0,45,0.00,,,0.00,Wunderground v.1.15,2013-02-20 19:40:00,
2013-02-20 11:50:00,54.9,33.9,30.31,WNW,283,4.0,7.0,45,0.00,,,0.00,Wunderground v.1.15,2013-02-20 19:50:00,
2013-02-20 12:00:00,55.2,34.8,30.30,WSW,255,4.0,4.0,46,0.00,,,0.00,Wunderground v.1.15,2013-02-20 20:00:00,
2013-02-20 12:05:00,55.5,33.9,30.30,WNW,297,4.0,4.0,44,0.00,,,0.00,Wunderground v.1.15,2013-02-20 20:05:00,
2013-02-20 12:15:00,55.9,34.8,30.30,WNW,288,3.0,6.0,45,0.00,,,0.00,Wunderground v.1.15,2013-02-20 20:15:00,
2013-02-20 12:25:00,56.0,34.9,30.30,West,264,3.0,5.0,45,0.00,,,0.00,Wunderground v.1.15,2013-02-20 20:25:00,
2013-02-20 12:30:00,56.1,35.0,30.30,SW,235,4.0,4.0,45,0.00,,,0.00,Wunderground v.1.15,2013-02-20 20:30:00,
2013-02-20 12:35:00,56.3,34.6,30.29,SW,224,4.0,4.0,44,0.00,,,0.00,Wunderground v.1.15,2013-02-20 20:35:00,
2013-02-20 12:45:00,56.5,36.0,30.30,WSW,237,4.0,4.0,46,0.00,,,0.00,Wunderground v.1.15,2013-02-20 20:45:00,
2013-02-20 12:50:00,56.1,35.6,30.29,WNW,288,3.0,3.0,46,0.00,,,0.00,Wunderground v.1.15,2013-02-20 20:50:00,
2013-02-20 13:00:00,56.0,33.2,30.29,NNW,347,4.0,4.0,42,0.00,,,0.00,Wunderground v.1.15,2013-02-20 21:00:00,
2013-02-20 13:10:00,56.6,31.9,30.29,WSW,255,4.0,4.0,39,0.00,,,0.00,Wunderground v.1.15,2013-02-20 21:10:00,
2013-02-20 13:20:00,57.1,31.0,30.29,NW,321,4.0,5.0,37,0.00,,,0.00,Wunderground v.1.15,2013-02-20 21:20:00,
2013-02-20 13:25:00,57.5,31.4,30.28,NW,319,4.0,5.0,37,0.00,,,0.00,Wunderground v.1.15,2013-02-20 21:25:00,
2013-02-20 13:30:00,57.6,27.9,30.28,WNW,302,4.0,4.0,32,0.00,,,0.00,Wunderground v.1.15,2013-02-20 21:30:00,
2013-02-20 13:40:00,57.9,34.9,30.28,WSW,257,5.0,5.0,42,0.00,,,0.00,Wunderground v.1.15,2013-02-20 21:40:00,
2013-02-20 13:50:00,57.7,29.5,30.28,WNW,283,5.0,7.0,34,0.00,,,0.00,Wunderground v.1.15,2013-02-20 21:50:00,
2013-02-20 13:55:00,57.7,30.2,30.28,NW,308,4.0,7.0,35,0.00,,,0.00,Wunderground v.1.15,2013-02-20 21:55:00,
2013-02-20 14:05:00,58.2,31.3,30.28,WNW,283,4.0,13.0,36,0.00,,,0.00,Wunderground v.1.15,2013-02-20 22:05:00,
2013-02-20 14:15:00,58.3,26.1,30.28,WNW,288,5.0,5.0,29,0.00,,,0.00,Wunderground v.1.15,2013-02-20 22:15:00,
2013-02-20 14:20:00,58.4,27.9,30.27,West,271,5.0,5.0,31,0.00,,,0.00,Wunderground v.1.15,2013-02-20 22:20:00,
2013-02-20 14:30:00,58.3,27.0,30.27,WNW,293,5.0,5.0,30,0.00,,,0.00,Wunderground v.1.15,2013-02-20 22:30:00,
2013-02-20 14:40:00,58.5,30.2,30.27,WSW,249,4.0,4.0,34,0.00,,,0.00,Wunderground v.1.15,2013-02-20 22:40:00,
2013-02-20 14:45:00,58.6,27.2,30.27,NNE,16,4.0,4.0,30,0.00,,,0.00,Wunderground v.1.15,2013-02-20 22:45:00,
2013-02-20 14:55:00,58.9,27.5,30.27,WNW,302,2.0,3.0,30,0.00,,,0.00,Wunderground v.1.15,2013-02-20 22:55:00,
2013-02-20 15:00:00,59.0,28.4,30.27,WNW,299,2.0,6.0,31,0.00,,,0.00,Wunderground v.1.15,2013-02-20 23:00:00,
2013-02-20 15:10:00,59.1,27.7,30.27,North,354,3.0,3.0,30,0.00,,,0.00,Wunderground v.1.15,2013-02-20 23:10:00,
2013-02-20 15:15:00,59.3,28.6,30.27,NNE,27,3.0,3.0,31,0.00,,,0.00,Wunderground v.1.15,2013-02-20 23:15:00,
2013-02-20 15:25:00,58.9,28.3,30.27,SW,233,4.0,4.0,31,0.00,,,0.00,Wunderground v.1.15,2013-02-20 23:25:00,
2013-02-20 15:35:00,58.8,29.0,30.27,WNW,300,3.0,5.0,32,0.00,,,0.00,Wunderground v.1.15,2013-02-20 23:35:00,
2013-02-20 15:45:00,58.7,29.6,30.28,SW,221,4.0,4.0,33,0.00,,,0.00,Wunderground v.1.15,2013-02-20 23:45:00,
2013-02-20 15:55:00,58.9,28.3,30.28,WNW,299,3.0,3.0,31,0.00,,,0.00,Wunderground v.1.15,2013-02-20 23:55:00,
2013-02-20 16:00:00,58.8,29.0,30.28,NW,318,3.0,4.0,32,0.00,,,0.00,Wunderground v.1.15,2013-02-21 00:00:00,
2013-02-20 16:10:00,58.8,30.5,30.28,West,276,3.0,3.0,34,0.00,,,0.00,Wunderground v.1.15,2013-02-21 00:10:00,
2013-02-20 16:20:00,58.3,32.1,30.28,West,277,2.0,3.0,37,0.00,,,0.00,Wunderground v.1.15,2013-02-21 00:20:00,
2013-02-20 16:25:00,58.2,32.0,30.28,West,260,3.0,3.0,37,0.00,,,0.00,Wunderground v.1.15,2013-02-21 00:25:00,
2013-02-20 16:35:00,58.0,32.5,30.28,WNW,288,3.0,3.0,38,0.00,,,0.00,Wunderground v.1.15,2013-02-21 00:35:00,
2013-02-20 16:40:00,58.1,31.9,30.28,West,266,3.0,3.0,37,0.00,,,0.00,Wunderground v.1.15,2013-02-21 00:40:00,
2013-02-20 16:45:00,58.2,31.3,30.28,NNW,335,3.0,3.0,36,0.00,,,0.00,Wunderground v.1.15,2013-02-21 00:45:00,
2013-02-20 16:55:00,58.1,30.6,30.28,WSW,245,3.0,4.0,35,0.00,,,0.00,Wunderground v.1.15,2013-02-21 00:55:00,
2013-02-20 17:00:00,58.0,31.2,30.28,WSW,239,3.0,3.0,36,0.00,,,0.00,Wunderground v.1.15,2013-02-21 01:00:00,
2013-02-20 17:10:00,57.3,35.6,30.28,WNW,285,1.0,3.0,44,0.00,,,0.00,Wunderground v.1.15,2013-02-21 01:10:00,
2013-02-20 17:15:00,56.7,33.8,30.28,WNW,288,1.0,3.0,42,0.00,,,0.00,Wunderground v.1.15,2013-02-21 01:15:00,
2013-02-20 17:25:00,55.6,33.4,30.29,West,279,1.0,1.0,43,0.00,,,0.00,Wunderground v.1.15,2013-02-21 01:25:00,
2013-02-20 17:35:00,55.0,32.9,30.29,West,280,1.0,3.0,43,0.00,,,0.00,Wunderground v.1.15,2013-02-21 01:35:00,
2013-02-20 17:40:00,54.5,31.9,30.29,NNW,335,1.0,1.0,42,0.00,,,0.00,Wunderground v.1.15,2013-02-21 01:40:00,
2013-02-20 17:45:00,53.9,32.5,30.29,SW,234,1.0,1.0,44,0.00,,,0.00,Wunderground v.1.15,2013-02-21 01:45:00,
2013-02-20 17:55:00,52.8,30.9,30.30,WSW,243,0.0,1.0,43,0.00,,,0.00,Wunderground v.1.15,2013-02-21 01:55:00,
2013-02-20 18:00:00,52.4,31.1,30.29,NNE,15,1.0,1.0,44,0.00,,,0.00,Wunderground v.1.15,2013-02-21 02:00:00,
2013-02-20 18:10:00,51.6,31.5,30.29,SE,133,0.0,0.0,46,0.00,,,0.00,Wunderground v.1.15,2013-02-21 02:10:00,
2013-02-20 18:15:00,51.1,31.6,30.29,SE,125,1.0,1.0,47,0.00,,,0.00,Wunderground v.1.15,2013-02-21 02:15:00,
2013-02-20 18:25:00,51.0,30.4,30.30,SE,145,1.0,1.0,45,0.00,,,0.00,Wunderground v.1.15,2013-02-21 02:25:00,
2013-02-20 18:30:00,50.7,30.1,30.30,ESE,122,1.0,1.0,45,0.00,,,0.00,Wunderground v.1.15,2013-02-21 02:30:00,
2013-02-20 18:35:00,50.4,30.4,30.30,ESE,120,0.0,1.0,46,0.00,,,0.00,Wunderground v.1.15,2013-02-21 02:35:00,
2013-02-20 18:45:00,49.4,29.5,30.31,ESE,120,0.0,0.0,46,0.00,,,0.00,Wunderground v.1.15,2013-02-21 02:45:00,
2013-02-20 18:50:00,48.8,30.0,30.31,ESE,120,0.0,0.0,48,0.00,,,0.00,Wunderground v.1.15,2013-02-21 02:50:00,
2013-02-20 19:00:00,48.5,30.2,30.31,SSE,149,0.0,0.0,49,0.00,,,0.00,Wunderground v.1.15,2013-02-21 03:00:00,
2013-02-20 19:10:00,48.2,29.9,30.32,SSE,149,0.0,0.0,49,0.00,,,0.00,Wunderground v.1.15,2013-02-21 03:10:00,
2013-02-20 19:20:00,48.3,31.0,30.32,ENE,59,1.0,1.0,51,0.00,,,0.00,Wunderground v.1.15,2013-02-21 03:20:00,
2013-02-20 19:25:00,48.4,31.1,30.33,East,92,1.0,1.0,51,0.00,,,0.00,Wunderground v.1.15,2013-02-21 03:25:00,
2013-02-20 19:35:00,48.1,30.8,30.33,East,90,0.0,0.0,51,0.00,,,0.00,Wunderground v.1.15,2013-02-21 03:35:00,
2013-02-20 19:40:00,48.0,30.7,30.33,WSW,257,1.0,1.0,51,0.00,,,0.00,Wunderground v.1.15,2013-02-21 03:40:00,
2013-02-20 19:45:00,47.9,31.1,30.33,WSW,257,0.0,1.0,52,0.00,,,0.00,Wunderground v.1.15,2013-02-21 03:45:00,
2013-02-20 19:55:00,46.7,32.7,30.34,West,271,0.0,1.0,58,0.00,,,0.00,Wunderground v.1.15,2013-02-21 03:55:00,
2013-02-20 20:00:00,47.0,34.6,30.34,WNW,299,0.0,0.0,62,0.00,,,0.00,Wunderground v.1.15,2013-02-21 04:00:00,
2013-02-20 20:10:00,47.8,34.6,30.34,WSW,240,1.0,1.0,60,0.00,,,0.00,Wunderground v.1.15,2013-02-21 04:10:00,
2013-02-20 20:15:00,47.2,33.6,30.34,SW,219,1.0,1.0,59,0.00,,,0.00,Wunderground v.1.15,2013-02-21 04:15:00,
2013-02-20 20:25:00,46.5,33.8,30.34,WNW,285,0.0,0.0,61,0.00,,,0.00,Wunderground v.1.15,2013-02-21 04:25:00,
2013-02-20 20:35:00,47.0,33.8,30.35,NW,316,1.0,1.0,60,0.00,,,0.00,Wunderground v.1.15,2013-02-21 04:35:00,
2013-02-20 20:40:00,46.9,34.1,30.34,SW,214,1.0,1.0,61,0.00,,,0.00,Wunderground v.1.15,2013-02-21 04:40:00,
2013-02-20 20:50:00,47.2,34.4,30.35,NW,307,2.0,3.0,61,0.00,,,0.00,Wunderground v.1.15,2013-02-21 04:50:00,
2013-02-20 20:55:00,47.4,35.0,30.35,WNW,293,2.0,3.0,62,0.00,,,0.00,Wunderground v.1.15,2013-02-21 04:55:00,
2013-02-20 21:00:00,47.3,34.9,30.35,WSW,250,1.0,1.0,62,0.00,,,0.00,Wunderground v.1.15,2013-02-21 05:00:00,
2013-02-20 21:05:00,46.9,34.6,30.35,WSW,248,0.0,1.0,62,0.00,,,0.00,Wunderground v.1.15,2013-02-21 05:05:00,
2013-02-20 21:10:00,46.3,34.4,30.35,WSW,248,0.0,0.0,63,0.00,,,0.00,Wunderground v.1.15,2013-02-21 05:10:00,
2013-02-20 21:20:00,45.7,34.6,30.36,WSW,239,0.0,0.0,65,0.00,,,0.00,Wunderground v.1.15,2013-02-21 05:20:00,
2013-02-20 21:25:00,45.5,34.8,30.36,WSW,248,0.0,1.0,66,0.00,,,0.00,Wunderground v.1.15,2013-02-21 05:25:00,
2013-02-20 21:35:00,45.4,34.3,30.36,SW,231,1.0,1.0,65,0.00,,,0.00,Wunderground v.1.15,2013-02-21 05:35:00,
2013-02-20 21:40:00,45.1,34.8,30.37,West,262,0.0,0.0,67,0.00,,,0.00,Wunderground v.1.15,2013-02-21 05:40:00,
2013-02-20 21:50:00,45.3,35.0,30.37,WNW,287,1.0,2.0,67,0.00,,,0.00,Wunderground v.1.15,2013-02-21 05:50:00,
2013-02-20 21:55:00,45.7,35.0,30.37,West,273,1.0,2.0,66,0.00,,,0.00,Wunderground v.1.15,2013-02-21 05:55:00,
2013-02-20 22:00:00,45.7,35.0,30.37,WNW,302,1.0,1.0,66,0.00,,,0.00,Wunderground v.1.15,2013-02-21 06:00:00,
2013-02-20 22:10:00,45.6,35.3,30.37,WNW,300,1.0,1.0,67,0.00,,,0.00,Wunderground v.1.15,2013-02-21 06:10:00,
2013-02-20 22:20:00,45.6,35.6,30.37,WSW,239,1.0,1.0,68,0.00,,,0.00,Wunderground v.1.15,2013-02-21 06:20:00,
2013-02-20 22:30:00,44.2,34.7,30.37,South,176,0.0,0.0,69,0.00,,,0.00,Wunderground v.1.15,2013-02-21 06:30:00,
2013-02-20 22:35:00,43.9,35.1,30.37,ESE,120,0.0,0.0,71,0.00,,,0.00,Wunderground v.1.15,2013-02-21 06:35:00,
2013-02-20 22:45:00,44.0,35.6,30.36,ESE,120,0.0,1.0,72,0.00,,,0.00,Wunderground v.1.15,2013-02-21 06:45:00,
2013-02-20 22:50:00,43.9,35.5,30.36,SSW,196,0.0,0.0,72,0.00,,,0.00,Wunderground v.1.15,2013-02-21 06:50:00,
2013-02-20 22:55:00,43.5,35.1,30.37,SSW,197,0.0,0.0,72,0.00,,,0.00,Wunderground v.1.15,2013-02-21 06:55:00,
2013-02-20 23:00:00,42.9,34.8,30.36,SSW,197,0.0,0.0,73,0.00,,,0.00,Wunderground v.1.15,2013-02-21 07:00:00,
2013-02-20 23:10:00,42.4,35.0,30.37,SE,132,0.0,0.0,75,0.00,,,0.00,Wunderground v.1.15,2013-02-21 07:10:00,
2013-02-20 23:20:00,42.6,35.6,30.36,ESE,104,1.0,1.0,76,0.00,,,0.00,Wunderground v.1.15,2013-02-21 07:20:00,
2013-02-20 23:30:00,42.4,35.0,30.36,East,89,0.0,0.0,75,0.00,,,0.00,Wunderground v.1.15,2013-02-21 07:30:00,
2013-02-20 23:40:00,42.4,35.4,30.36,East,86,1.0,1.0,76,0.00,,,0.00,Wunderground v.1.15,2013-02-21 07:40:00,
2013-02-20 23:45:00,42.2,35.2,30.36,East,86,0.0,1.0,76,0.00,,,0.00,Wunderground v.1.15,2013-02-21 07:45:00,
2013-02-20 23:55:00,41.8,35.1,30.37,SE,125,0.0,0.0,77,0.00,,,0.00,Wunderground v.1.15,2013-02-21 07:55:00,